Terminal Aerodrome Forecast
Issued by NWS

Home | Current Version | Previous Version | Text Only | Print | Product List | Glossary On
Versions: 1 2 3 4 5 6 7 8 9 10 11 12 13 14
571
FTUS45 KPIH 262329
TAFSUN
TAF
KSUN 262329Z 2700/2724 23007G17KT P6SM VCSH SCT030 BKN040 OVC050
     FM270100 24011KT 5SM -RASN SCT020 BKN030 OVC040
     FM270600 31008KT P6SM VCSH SCT030 BKN040
     FM271500 31008KT 3SM -SHSN BR SCT015 BKN020
     FM272100 17006KT 6SM BR VCSH SCT020 BKN040
      AMD LTD TO CLD VIS AND WIND 2705/2713=

USA.gov is the U.S. government's official web portal to all federal, state and local government web resources and services.